createdAt,value
2017-12-08T00:00:54.616Z,99948.66
2017-12-08T00:03:29.831Z,99943.13
2017-12-08T00:06:04.900Z,99945.20
2017-12-08T00:08:39.464Z,99935.17
2017-12-08T00:11:14.585Z,99934.58
2017-12-08T00:13:49.007Z,99934.20
2017-12-08T00:16:24.240Z,99935.72
2017-12-08T00:18:59.096Z,99939.45
2017-12-08T00:21:33.896Z,99945.59
2017-12-08T00:24:08.932Z,99945.09
2017-12-08T00:26:43.888Z,99951.36
2017-12-08T00:29:18.893Z,99946.06
2017-12-08T00:31:53.944Z,99946.33
2017-12-08T00:34:28.924Z,99947.40
2017-12-08T00:37:03.808Z,99950.67
2017-12-08T00:39:38.960Z,99952.91
2017-12-08T00:42:13.944Z,99947.64
2017-12-08T00:44:49.043Z,99932.48
2017-12-08T00:47:24.396Z,99935.95
2017-12-08T00:49:59.267Z,99939.72
2017-12-08T00:52:34.228Z,99947.69
2017-12-08T00:55:09.265Z,99944.88
2017-12-08T00:57:44.092Z,99937.88
2017-12-08T01:00:18.992Z,99937.88
2017-12-08T01:02:53.947Z,99939.75
2017-12-08T01:05:29.000Z,99949.72
2017-12-08T01:08:04.132Z,99933.43
2017-12-08T01:10:39.360Z,99948.73
2017-12-08T01:13:14.648Z,99934.80
2017-12-08T01:15:49.765Z,99932.41
2017-12-08T01:18:24.800Z,99938.91
2017-12-08T01:21:00.205Z,99930.63
2017-12-08T01:23:35.484Z,99933.86
2017-12-08T01:26:10.593Z,99934.64
2017-12-08T01:28:45.711Z,99943.05
2017-12-08T01:31:20.597Z,99938.02
2017-12-08T01:33:55.399Z,99943.52
2017-12-08T01:36:30.510Z,99955.75
2017-12-08T01:39:04.972Z,99962.29
2017-12-08T01:41:40.183Z,99954.60
2017-12-08T01:44:15.148Z,99960.60
2017-12-08T01:46:50.072Z,99952.14
2017-12-08T01:49:25.144Z,99954.50
2017-12-08T01:51:59.555Z,99958.98
2017-12-08T01:54:34.462Z,99958.55
2017-12-08T01:57:09.311Z,99961.12
2017-12-08T01:59:44.236Z,99965.88
2017-12-08T02:02:19.131Z,99962.08
2017-12-08T02:04:54.004Z,99965.94
2017-12-08T02:07:29.033Z,99966.92
2017-12-08T02:10:04.259Z,99964.16
2017-12-08T02:12:39.440Z,99966.32
2017-12-08T02:15:14.468Z,99970.27
2017-12-08T02:17:49.780Z,99963.11
2017-12-08T02:20:24.424Z,99964.64
2017-12-08T02:22:59.426Z,99967.09
2017-12-08T02:25:34.328Z,99959.44
2017-12-08T02:28:09.288Z,99975.98
2017-12-08T02:30:43.512Z,99967.98
2017-12-08T02:33:18.304Z,99978.62
2017-12-08T02:35:53.127Z,99972.38
2017-12-08T02:38:28.145Z,99974.83
2017-12-08T02:41:03.049Z,99966.41
2017-12-08T02:43:37.809Z,99970.86
2017-12-08T02:46:12.613Z,99964.20
2017-12-08T02:48:47.684Z,99981.89
2017-12-08T02:51:22.331Z,99973.53
2017-12-08T02:53:57.268Z,99974.69
2017-12-08T02:56:32.065Z,99973.18
2017-12-08T02:59:07.112Z,99972.23
2017-12-08T03:01:42.304Z,99982.33
2017-12-08T03:04:17.409Z,99972.98
2017-12-08T03:06:52.332Z,99980.36
2017-12-08T03:09:27.121Z,99976.94
2017-12-08T03:12:02.096Z,99977.95
2017-12-08T03:14:37.100Z,99972.34
2017-12-08T03:17:11.980Z,99978.06
2017-12-08T03:19:46.732Z,99978.27
2017-12-08T03:22:22.092Z,99974.80
2017-12-08T03:24:56.936Z,99973.03
2017-12-08T03:27:31.520Z,99979.08
2017-12-08T03:30:06.504Z,99986.29
2017-12-08T03:32:41.684Z,99975.55
2017-12-08T03:35:16.484Z,99969.80
2017-12-08T03:37:50.907Z,99966.48
2017-12-08T03:40:25.648Z,99981.27
2017-12-08T03:43:00.844Z,99982.98
2017-12-08T03:45:35.245Z,99976.74
2017-12-08T03:48:10.237Z,99972.88
2017-12-08T03:50:45.191Z,99977.76
2017-12-08T03:53:19.993Z,99976.22
2017-12-08T03:55:54.708Z,99971.22
2017-12-08T03:58:29.404Z,99972.85
2017-12-08T04:01:04.280Z,99974.59
2017-12-08T04:03:38.992Z,99973.55
2017-12-08T04:06:13.740Z,99963.59
2017-12-08T04:08:48.677Z,99966.32
2017-12-08T04:11:23.793Z,99966.64
2017-12-08T04:13:58.875Z,99961.73
2017-12-08T04:16:33.736Z,99965.05
2017-12-08T04:19:08.516Z,99961.56
2017-12-08T04:21:43.184Z,99962.58
2017-12-08T04:24:18.198Z,99970.27
2017-12-08T04:26:52.915Z,99969.25
2017-12-08T04:29:27.623Z,99958.37
2017-12-08T04:32:02.660Z,99960.92
2017-12-08T04:34:37.540Z,99959.00
2017-12-08T04:37:11.960Z,99956.97
2017-12-08T04:39:46.744Z,99953.20
2017-12-08T04:42:21.700Z,99952.77
2017-12-08T04:44:56.794Z,99959.58
2017-12-08T04:47:31.813Z,99961.47
2017-12-08T04:50:06.863Z,99962.48
2017-12-08T04:52:42.115Z,99959.77
2017-12-08T04:55:16.873Z,99952.12
2017-12-08T04:57:52.132Z,99948.76
2017-12-08T05:00:27.003Z,99950.61
2017-12-08T05:03:01.625Z,99950.09
2017-12-08T05:05:36.045Z,99952.06
2017-12-08T05:08:11.172Z,99955.87
2017-12-08T05:10:45.892Z,99954.36
2017-12-08T05:13:21.054Z,99969.30
2017-12-08T05:15:56.136Z,99972.23
2017-12-08T05:18:30.936Z,99976.27
2017-12-08T05:21:05.404Z,99984.19
2017-12-08T05:23:40.164Z,99981.31
2017-12-08T05:26:15.044Z,99990.86
2017-12-08T05:28:49.848Z,99980.77
2017-12-08T05:31:24.684Z,99970.22
2017-12-08T05:33:59.837Z,99967.81
2017-12-08T05:36:34.785Z,99979.33
2017-12-08T05:39:09.881Z,99976.06
2017-12-08T05:41:44.956Z,99969.70
2017-12-08T05:44:19.735Z,99976.99
2017-12-08T05:46:54.588Z,99981.50
2017-12-08T05:49:29.408Z,99987.27
2017-12-08T05:52:04.403Z,99983.78
2017-12-08T05:54:39.211Z,99976.04
2017-12-08T05:57:14.159Z,99981.13
2017-12-08T05:59:49.145Z,99975.19
2017-12-08T06:02:23.892Z,99977.06
2017-12-08T06:04:59.396Z,99981.08
2017-12-08T06:07:34.483Z,99976.86
2017-12-08T06:10:09.284Z,99983.41
2017-12-08T06:12:44.548Z,99981.57
2017-12-08T06:15:19.311Z,99992.69
2017-12-08T06:17:54.220Z,99982.80
2017-12-08T06:20:28.724Z,99976.81
2017-12-08T06:23:03.854Z,99978.52
2017-12-08T06:25:38.679Z,99972.53
2017-12-08T06:28:13.411Z,99972.72
2017-12-08T06:30:48.346Z,99962.88
2017-12-08T06:33:23.320Z,99966.31
2017-12-08T06:35:58.306Z,99967.94
2017-12-08T06:38:33.399Z,99970.78
2017-12-08T06:41:08.724Z,99975.11
2017-12-08T06:43:43.336Z,99975.00
2017-12-08T06:46:18.564Z,99980.93
2017-12-08T06:48:53.300Z,99988.16
2017-12-08T06:51:28.014Z,99983.55
2017-12-08T06:54:02.916Z,99985.59
2017-12-08T06:56:37.507Z,99980.28
2017-12-08T06:59:12.176Z,99989.77
2017-12-08T07:01:47.211Z,99991.28
2017-12-08T07:04:21.772Z,99989.48
2017-12-08T07:06:56.672Z,99989.66
2017-12-08T07:09:31.379Z,99991.72
2017-12-08T07:12:06.260Z,99991.61
2017-12-08T07:14:40.892Z,99990.72
2017-12-08T07:17:15.794Z,99988.72
2017-12-08T07:19:50.195Z,99992.23
2017-12-08T07:22:24.624Z,99998.48
2017-12-08T07:24:59.936Z,99995.38
2017-12-08T07:27:34.380Z,99998.52
2017-12-08T07:30:09.615Z,100012.95
2017-12-08T07:32:44.324Z,100012.44
2017-12-08T07:35:19.209Z,100007.71
2017-12-08T07:37:53.908Z,100016.16
2017-12-08T07:40:28.836Z,100009.50
2017-12-08T07:43:03.744Z,100008.48
2017-12-08T07:45:38.572Z,100014.27
2017-12-08T07:48:13.072Z,100011.55
2017-12-08T07:50:47.980Z,100016.66
2017-12-08T07:53:23.025Z,100022.59
2017-12-08T07:55:57.949Z,100026.27
2017-12-08T07:58:32.593Z,100026.93
2017-12-08T08:01:07.509Z,100029.48
2017-12-08T08:03:42.361Z,100034.64
2017-12-08T08:06:17.252Z,100035.12
2017-12-08T08:08:51.903Z,100039.58
2017-12-08T08:11:26.840Z,100038.13
2017-12-08T08:14:01.989Z,100045.06
2017-12-08T08:16:36.659Z,100045.28
2017-12-08T08:19:11.785Z,100049.56
2017-12-08T08:21:46.383Z,100045.39
2017-12-08T08:24:21.084Z,100054.48
2017-12-08T08:26:56.245Z,100048.50
2017-12-08T08:29:31.165Z,100050.05
2017-12-08T08:32:06.328Z,100053.44
2017-12-08T08:34:41.256Z,100054.77
2017-12-08T08:37:16.208Z,100055.70
2017-12-08T08:39:51.236Z,100056.59
2017-12-08T08:42:26.473Z,100059.30
2017-12-08T08:45:01.311Z,100063.22
2017-12-08T08:47:35.950Z,100054.49
2017-12-08T08:50:10.669Z,100055.59
2017-12-08T08:52:45.617Z,100068.73
2017-12-08T08:55:20.362Z,100063.61
2017-12-08T08:57:55.356Z,100063.70
2017-12-08T09:00:29.860Z,100076.72
2017-12-08T09:03:04.840Z,100059.95
2017-12-08T09:05:39.849Z,100063.74
2017-12-08T09:08:14.313Z,100071.28
2017-12-08T09:10:49.228Z,100063.60
2017-12-08T09:13:24.080Z,100066.59
2017-12-08T09:15:58.840Z,100076.15
2017-12-08T09:18:33.849Z,100077.92
2017-12-08T09:21:08.672Z,100077.16
2017-12-08T09:23:43.276Z,100075.45
2017-12-08T09:26:18.458Z,100068.44
2017-12-08T09:28:55.336Z,100068.20
2017-12-08T09:31:30.512Z,100074.89
2017-12-08T09:34:05.427Z,100071.22
2017-12-08T09:36:40.116Z,100077.17
2017-12-08T09:39:15.204Z,100066.34
2017-12-08T09:41:50.081Z,100072.58
2017-12-08T09:44:25.192Z,100059.95
2017-12-08T09:46:59.712Z,100057.05
2017-12-08T09:49:34.500Z,100060.39
2017-12-08T09:52:09.144Z,100046.94
2017-12-08T09:54:44.248Z,100065.06
2017-12-08T09:57:19.132Z,100060.39
2017-12-08T09:59:54.160Z,100057.16
2017-12-08T10:02:29.036Z,100064.21
2017-12-08T10:05:03.905Z,100063.50
2017-12-08T10:07:38.968Z,100067.34
2017-12-08T10:10:14.067Z,100064.55
2017-12-08T10:12:48.720Z,100062.73
2017-12-08T10:15:23.839Z,100058.94
2017-12-08T10:17:58.770Z,100057.83
2017-12-08T10:20:33.424Z,100058.09
2017-12-08T10:23:08.065Z,100052.12
2017-12-08T10:25:43.181Z,100053.16
2017-12-08T10:28:18.088Z,100048.12
2017-12-08T10:30:52.454Z,100044.54
2017-12-08T10:33:27.568Z,100040.78
2017-12-08T10:36:02.044Z,100037.20
2017-12-08T10:38:37.056Z,100037.63
2017-12-08T10:41:11.889Z,100034.70
2017-12-08T10:43:46.407Z,100027.08
2017-12-08T10:46:21.743Z,100032.06
2017-12-08T10:48:56.438Z,100032.55
2017-12-08T10:51:31.121Z,100028.35
2017-12-08T10:54:06.356Z,100028.28
2017-12-08T10:56:41.791Z,100026.07
2017-12-08T10:59:16.465Z,100025.28
2017-12-08T11:01:51.268Z,100020.52
2017-12-08T11:04:25.817Z,100020.81
2017-12-08T11:07:00.791Z,100030.27
2017-12-08T11:09:35.520Z,100025.28
2017-12-08T11:12:10.228Z,100023.44
2017-12-08T11:14:46.566Z,100014.02
2017-12-08T11:17:20.918Z,100020.17
2017-12-08T11:19:55.721Z,100015.94
2017-12-08T11:22:30.265Z,100012.73
2017-12-08T11:25:05.205Z,100011.61
2017-12-08T11:27:39.825Z,100012.11
2017-12-08T11:30:14.318Z,100006.81
2017-12-08T11:32:49.442Z,100004.41
2017-12-08T11:35:24.465Z,100003.87
2017-12-08T11:37:59.489Z,99990.64
2017-12-08T11:40:35.008Z,99994.95
2017-12-08T11:43:09.576Z,100002.91
2017-12-08T11:45:44.493Z,99995.84
2017-12-08T11:48:19.432Z,100007.52
2017-12-08T11:50:54.289Z,100005.64
2017-12-08T11:53:29.189Z,100008.97
2017-12-08T11:56:04.341Z,99998.45
2017-12-08T11:58:39.124Z,100011.13
2017-12-08T12:01:13.517Z,99998.91
2017-12-08T12:03:48.525Z,100008.88
2017-12-08T12:06:23.673Z,100012.94
2017-12-08T12:08:58.684Z,100003.06
2017-12-08T12:11:33.818Z,100004.59
2017-12-08T12:14:08.693Z,100007.58
2017-12-08T12:16:43.516Z,100004.43
2017-12-08T12:19:18.400Z,100012.14
2017-12-08T12:21:53.181Z,100015.03
2017-12-08T12:24:28.196Z,100014.86
2017-12-08T12:27:02.936Z,100010.66
2017-12-08T12:29:37.740Z,100016.53
2017-12-08T12:32:12.500Z,100020.24
2017-12-08T12:34:47.481Z,100016.91
2017-12-08T12:37:22.376Z,100017.69
2017-12-08T12:39:57.463Z,100013.48
2017-12-08T12:42:31.995Z,100015.77
2017-12-08T12:45:06.904Z,100019.80
2017-12-08T12:47:42.284Z,100023.41
2017-12-08T12:50:17.176Z,100014.64
2017-12-08T12:52:52.088Z,100027.77
2017-12-08T12:55:26.988Z,100018.95
2017-12-08T12:58:01.702Z,100019.69
2017-12-08T13:00:36.531Z,100026.50
2017-12-08T13:03:11.361Z,100021.62
2017-12-08T13:05:46.357Z,100024.61
2017-12-08T13:08:21.440Z,100020.60
2017-12-08T13:10:56.437Z,100031.70
2017-12-08T13:13:31.141Z,100031.03
2017-12-08T13:16:06.220Z,100028.70
2017-12-08T13:18:41.093Z,100023.48
2017-12-08T13:21:16.336Z,100043.91
2017-12-08T13:23:50.844Z,100033.52
2017-12-08T13:26:25.692Z,100041.56
2017-12-08T13:29:00.597Z,100046.61
2017-12-08T13:31:35.474Z,100054.22
2017-12-08T13:34:10.180Z,100048.52
2017-12-08T13:36:44.941Z,100047.73
2017-12-08T13:39:19.735Z,100058.83
2017-12-08T13:41:54.603Z,100051.13
2017-12-08T13:44:29.009Z,100055.84
2017-12-08T13:47:03.855Z,100059.66
2017-12-08T13:49:38.788Z,100070.97
2017-12-08T13:52:13.590Z,100076.80
2017-12-08T13:54:59.728Z,100084.18
2017-12-08T13:57:34.160Z,100086.22
2017-12-08T14:00:08.944Z,100092.31
2017-12-08T14:02:43.841Z,100097.70
2017-12-08T14:05:18.252Z,100106.84
2017-12-08T14:07:53.381Z,100105.23
2017-12-08T14:10:28.260Z,100101.49
2017-12-08T14:13:02.913Z,100108.27
2017-12-08T14:15:37.737Z,100111.69
2017-12-08T14:18:12.716Z,100112.66
2017-12-08T14:20:47.928Z,100118.09
2017-12-08T14:23:22.956Z,100120.05
2017-12-08T14:25:58.136Z,100130.20
2017-12-08T14:28:33.196Z,100114.70
2017-12-08T14:31:08.119Z,100124.11
2017-12-08T14:33:43.068Z,100127.21
2017-12-08T14:36:17.665Z,100126.41
2017-12-08T14:38:52.827Z,100127.70
2017-12-08T14:41:27.777Z,100118.00
2017-12-08T14:44:02.793Z,100118.18
2017-12-08T14:46:38.017Z,100112.66
2017-12-08T14:49:13.095Z,100102.23
2017-12-08T14:51:48.104Z,100111.83
2017-12-08T14:54:22.947Z,100108.41
2017-12-08T14:56:57.985Z,100106.59
2017-12-08T14:59:32.912Z,100110.50
2017-12-08T15:02:07.719Z,100112.25
2017-12-08T15:04:42.476Z,100113.70
2017-12-08T15:07:17.805Z,100122.02
2017-12-08T15:09:52.623Z,100125.75
2017-12-08T15:12:27.370Z,100131.47
2017-12-08T15:15:02.376Z,100134.52
2017-12-08T15:17:37.743Z,100139.78
2017-12-08T15:20:12.380Z,100135.09
2017-12-08T15:22:47.508Z,100138.28
2017-12-08T15:25:22.404Z,100147.98
2017-12-08T15:27:57.197Z,100152.83
2017-12-08T15:30:32.398Z,100154.22
2017-12-08T15:33:07.330Z,100146.50
2017-12-08T15:35:42.024Z,100151.48
2017-12-08T15:38:16.562Z,100151.97
2017-12-08T15:40:51.564Z,100146.30
2017-12-08T15:43:26.564Z,100153.05
2017-12-08T15:46:01.994Z,100153.59
2017-12-08T15:48:36.111Z,100161.77
2017-12-08T15:51:10.798Z,100156.26
2017-12-08T15:53:45.212Z,100156.85
2017-12-08T15:56:19.927Z,100153.30
2017-12-08T15:58:54.588Z,100156.17
2017-12-08T16:01:29.172Z,100167.09
2017-12-08T16:04:04.284Z,100166.36
2017-12-08T16:06:39.038Z,100163.86
2017-12-08T16:09:13.425Z,100159.78
2017-12-08T16:11:48.464Z,100168.63
2017-12-08T16:14:23.270Z,100160.13
2017-12-08T16:16:58.045Z,100162.23
2017-12-08T16:19:32.548Z,100163.70
2017-12-08T16:22:07.866Z,100162.58
2017-12-08T16:24:42.557Z,100167.34
2017-12-08T16:27:17.228Z,100170.66
2017-12-08T16:29:51.644Z,100174.88
2017-12-08T16:32:27.028Z,100173.51
2017-12-08T16:35:01.865Z,100182.23
2017-12-08T16:37:36.694Z,100177.40
2017-12-08T16:40:13.120Z,100179.23
2017-12-08T16:42:47.740Z,100177.88
2017-12-08T16:45:22.464Z,100177.79
2017-12-08T16:47:57.768Z,100178.24
2017-12-08T16:50:32.649Z,100173.31
2017-12-08T16:53:07.240Z,100180.44
2017-12-08T16:55:42.337Z,100180.09
2017-12-08T16:58:17.366Z,100182.31
2017-12-08T17:00:52.159Z,100180.05
2017-12-08T17:03:26.788Z,100182.27
2017-12-08T17:06:01.609Z,100180.49
2017-12-08T17:08:36.764Z,100185.31
2017-12-08T17:11:12.577Z,100197.70
2017-12-08T17:13:47.716Z,100194.26
2017-12-08T17:16:22.209Z,100202.98
2017-12-08T17:18:57.172Z,100203.47
2017-12-08T17:21:31.982Z,100193.08
2017-12-08T17:24:06.396Z,100202.58
2017-12-08T17:26:40.613Z,100205.56
2017-12-08T17:29:15.242Z,100201.97
2017-12-08T17:31:49.624Z,100204.10
2017-12-08T17:34:23.956Z,100204.78
2017-12-08T17:36:59.148Z,100210.48
2017-12-08T17:39:34.005Z,100208.39
2017-12-08T17:42:09.024Z,100207.39
2017-12-08T17:44:43.896Z,100211.08
2017-12-08T17:47:18.787Z,100204.98
2017-12-08T17:49:53.809Z,100217.92
2017-12-08T17:52:28.668Z,100221.82
2017-12-08T17:55:03.673Z,100230.66
2017-12-08T17:57:38.524Z,100227.96
2017-12-08T18:00:13.303Z,100233.61
2017-12-08T18:02:48.509Z,100225.34
2017-12-08T18:05:23.076Z,100222.23
2017-12-08T18:07:58.193Z,100226.27
2017-12-08T18:10:33.250Z,100220.09
2017-12-08T18:13:07.996Z,100226.33
2017-12-08T18:15:42.780Z,100234.25
2017-12-08T18:18:17.149Z,100228.86
2017-12-08T18:20:52.188Z,100226.10
2017-12-08T18:23:26.846Z,100219.52
2017-12-08T18:26:01.948Z,100223.75
2017-12-08T18:28:36.447Z,100215.93
2017-12-08T18:31:11.385Z,100213.63
2017-12-08T18:33:46.177Z,100216.22
2017-12-08T18:36:30.477Z,100217.53
2017-12-08T18:39:04.625Z,100217.93
2017-12-08T18:41:39.953Z,100215.91
2017-12-08T18:44:14.579Z,100221.70
2017-12-08T18:46:49.476Z,100215.39
2017-12-08T18:49:24.340Z,100210.75
2017-12-08T18:51:59.064Z,100210.75
2017-12-08T18:54:33.836Z,100211.50
2017-12-08T18:57:08.416Z,100213.57
2017-12-08T18:59:43.369Z,100213.92
2017-12-08T19:02:18.212Z,100206.10
2017-12-08T19:04:52.910Z,100201.87
2017-12-08T19:07:27.934Z,100210.63
2017-12-08T19:10:03.319Z,100193.18
2017-12-08T19:12:38.023Z,100198.77
2017-12-08T19:15:12.833Z,100199.22
2017-12-08T19:17:48.293Z,100193.85
2017-12-08T19:20:23.156Z,100189.02
2017-12-08T19:22:58.172Z,100180.63
2017-12-08T19:25:32.672Z,100180.11
2017-12-08T19:28:07.451Z,100180.66
2017-12-08T19:30:42.472Z,100172.60
2017-12-08T19:33:16.766Z,100167.15
2017-12-08T19:35:51.341Z,100157.13
2017-12-08T19:38:25.997Z,100168.15
2017-12-08T19:41:01.157Z,100155.16
2017-12-08T19:43:35.700Z,100154.44
2017-12-08T19:46:10.658Z,100149.33
2017-12-08T19:48:45.032Z,100141.72
2017-12-08T19:51:20.363Z,100135.70
2017-12-08T19:53:55.248Z,100130.30
2017-12-08T19:56:30.061Z,100125.45
2017-12-08T19:59:04.989Z,100128.30
2017-12-08T20:01:39.211Z,100131.34
2017-12-08T20:04:14.301Z,100144.38
2017-12-08T20:06:49.224Z,100150.47
2017-12-08T20:09:24.159Z,100149.00
2017-12-08T20:11:58.576Z,100152.20
2017-12-08T20:14:33.663Z,100148.61
2017-12-08T20:17:08.670Z,100146.34
2017-12-08T20:19:43.567Z,100149.39
2017-12-08T20:22:18.128Z,100152.39
2017-12-08T20:24:52.652Z,100135.28
2017-12-08T20:27:27.358Z,100145.75
2017-12-08T20:30:02.035Z,100144.93
2017-12-08T20:32:37.160Z,100149.80
2017-12-08T20:35:12.092Z,100152.64
2017-12-08T20:37:47.021Z,100155.99
2017-12-08T20:40:21.964Z,100147.33
2017-12-08T20:42:56.700Z,100139.26
2017-12-08T20:45:31.232Z,100148.07
2017-12-08T20:48:06.048Z,100141.69
2017-12-08T20:50:40.895Z,100141.14
2017-12-08T20:53:15.792Z,100140.05
2017-12-08T20:55:50.930Z,100144.97
2017-12-08T20:58:25.709Z,100140.09
2017-12-08T21:01:00.532Z,100135.31
2017-12-08T21:03:35.465Z,100135.61
2017-12-08T21:06:10.297Z,100150.55
2017-12-08T21:08:45.315Z,100153.29
2017-12-08T21:11:20.065Z,100154.31
2017-12-08T21:13:54.985Z,100148.89
2017-12-08T21:16:29.917Z,100146.42
2017-12-08T21:19:04.613Z,100146.95
2017-12-08T21:21:39.548Z,100139.52
2017-12-08T21:24:13.977Z,100140.30
2017-12-08T21:26:48.509Z,100150.33
2017-12-08T21:29:23.764Z,100140.31
2017-12-08T21:31:58.801Z,100147.55
2017-12-08T21:34:33.549Z,100153.70
2017-12-08T21:37:08.425Z,100155.77
2017-12-08T21:39:43.373Z,100156.11
2017-12-08T21:42:18.520Z,100150.96
2017-12-08T21:44:53.600Z,100144.58
2017-12-08T21:47:28.501Z,100141.91
2017-12-08T21:50:03.284Z,100152.27
2017-12-08T21:52:38.032Z,100150.11
2017-12-08T21:55:12.884Z,100149.81
2017-12-08T21:57:47.704Z,100144.45
2017-12-08T22:00:22.269Z,100144.91
2017-12-08T22:02:56.571Z,100145.30
2017-12-08T22:05:31.176Z,100167.41
2017-12-08T22:08:06.312Z,100188.56
2017-12-08T22:10:41.129Z,100173.76
2017-12-08T22:13:16.056Z,100169.98
2017-12-08T22:15:50.858Z,100185.17
2017-12-08T22:18:25.601Z,100194.63
2017-12-08T22:21:00.684Z,100200.60
2017-12-08T22:23:35.488Z,100189.14
2017-12-08T22:26:10.321Z,100204.82
2017-12-08T22:28:45.464Z,100201.42
2017-12-08T22:31:20.529Z,100212.14
2017-12-08T22:33:55.323Z,100194.14
2017-12-08T22:36:30.101Z,100192.33
2017-12-08T22:39:04.620Z,100200.69
2017-12-08T22:41:39.704Z,100202.75
2017-12-08T22:44:14.632Z,100201.58
2017-12-08T22:46:49.992Z,100201.56
2017-12-08T22:49:24.945Z,100199.01
2017-12-08T22:51:59.604Z,100197.59
2017-12-08T22:54:34.499Z,100200.45
2017-12-08T22:57:09.031Z,100206.16
2017-12-08T22:59:44.147Z,100206.25
2017-12-08T23:02:18.903Z,100212.05
2017-12-08T23:04:53.917Z,100219.13
2017-12-08T23:07:28.896Z,100214.90
2017-12-08T23:10:03.799Z,100224.14
2017-12-08T23:12:38.274Z,100225.54
2017-12-08T23:15:13.049Z,100226.28
2017-12-08T23:17:47.792Z,100220.53
2017-12-08T23:20:22.701Z,100235.19
2017-12-08T23:22:57.749Z,100227.45
2017-12-08T23:25:32.356Z,100225.97
2017-12-08T23:28:07.504Z,100221.91
2017-12-08T23:30:42.317Z,100225.45
2017-12-08T23:33:17.167Z,100215.14
2017-12-08T23:35:52.089Z,100225.11
2017-12-08T23:38:26.944Z,100230.33
2017-12-08T23:41:01.732Z,100235.45
2017-12-08T23:43:37.142Z,100239.23
2017-12-08T23:46:11.851Z,100233.31
2017-12-08T23:48:46.572Z,100236.67
2017-12-08T23:51:21.520Z,100229.27
2017-12-08T23:53:57.000Z,100227.50
2017-12-08T23:56:31.876Z,100227.89
2017-12-08T23:59:07.036Z,100223.42
